Time;durP1;ratioP1;P1;durP2;ratioP2;P2;SDS_P1;SDS_P2;PMS_P1;PMS_P2;Temp;Humidity;BMP_temperature;BMP_pressure;BME280_temperature;BME280_humidity;BME280_pressure;Samples;Min_cycle;Max_cycle;Signal;HPM_P1;HPM_P2
2023/07/25 00:00:45;;;;;;;0.20;0.20;;;;;;;20.60;62.91;100691.13;5030594;28;20466;-74
2023/07/25 00:03:11;;;;;;;0.10;0.10;;;;;;;20.48;63.53;100698.94;5031605;28;20041;-75
2023/07/25 00:05:36;;;;;;;0.20;0.20;;;;;;;20.51;63.13;100694.81;5031018;28;20091;-74
2023/07/25 00:08:02;;;;;;;0.20;0.20;;;;;;;20.52;62.27;100694.53;5030544;28;20057;-75
2023/07/25 00:10:27;;;;;;;0.10;0.10;;;;;;;20.33;64.19;100690.16;5030421;28;20032;-74
2023/07/25 00:12:54;;;;;;;0.20;0.20;;;;;;;20.46;62.47;100692.19;5029872;28;20091;-74
2023/07/25 00:15:20;;;;;;;0.20;0.20;;;;;;;20.35;63.45;100686.03;5028966;28;20037;-75
2023/07/25 00:17:46;;;;;;;0.20;0.20;;;;;;;20.52;62.81;100693.72;5029242;28;20072;-75
2023/07/25 00:20:11;;;;;;;0.10;0.10;;;;;;;20.57;62.62;100696.38;5029477;28;20068;-75
2023/07/25 00:22:37;;;;;;;0.13;0.13;;;;;;;20.39;62.81;100695.25;5029156;28;20038;-74
2023/07/25 00:25:02;;;;;;;0.10;0.10;;;;;;;20.21;63.32;100690.59;5029971;28;20025;-75
2023/07/25 00:27:28;;;;;;;0.10;0.10;;;;;;;20.06;64.13;100686.13;5029463;28;20207;-75
2023/07/25 00:29:53;;;;;;;0.20;0.20;;;;;;;20.22;63.07;100677.75;5029744;28;20084;-75
2023/07/25 00:36:11;;;;;;;0.20;0.20;;;;;;;20.22;63.54;100680.50;5026890;28;20148;-75
2023/07/25 00:38:36;;;;;;;0.20;0.20;;;;;;;19.88;65.14;100688.78;5029050;28;20125;-75
2023/07/25 00:41:02;;;;;;;0.10;0.10;;;;;;;19.84;65.38;100695.91;5029517;28;20045;-75
2023/07/25 00:43:27;;;;;;;0.10;0.10;;;;;;;20.04;64.32;100699.22;5029189;28;20029;-76
2023/07/25 00:45:53;;;;;;;0.20;0.20;;;;;;;19.84;65.31;100704.91;5030228;28;20036;-75
2023/07/25 00:48:18;;;;;;;0.20;0.20;;;;;;;20.18;63.81;100699.34;5029374;28;20068;-74
2023/07/25 00:50:44;;;;;;;0.10;0.10;;;;;;;20.14;63.23;100698.28;5029385;28;20056;-74
2023/07/25 00:53:12;;;;;;;0.20;0.20;;;;;;;20.11;63.90;100702.41;5029160;28;20041;-74
2023/07/25 00:55:37;;;;;;;0.10;0.10;;;;;;;20.04;64.04;100685.59;5029339;28;20052;-76
2023/07/25 00:58:03;;;;;;;0.20;0.20;;;;;;;19.74;65.54;100691.38;5030050;28;20037;-75
2023/07/25 01:00:28;;;;;;;0.10;0.10;;;;;;;19.99;63.58;100687.53;5029512;28;20243;-75
2023/07/25 01:02:54;;;;;;;0.10;0.10;;;;;;;20.04;63.36;100682.88;5029469;28;20425;-75
2023/07/25 01:24:06;;;;;;;0.20;0.20;;;;;;;19.83;64.33;100676.00;5028951;28;20139;-76
2023/07/25 01:26:32;;;;;;;0.20;0.20;;;;;;;19.94;64.04;100677.53;5031073;28;20509;-75
2023/07/25 01:28:57;;;;;;;0.20;0.20;;;;;;;19.55;64.49;100685.03;5014529;28;20037;-74
2023/07/25 01:31:23;;;;;;;0.20;0.20;;;;;;;19.78;64.36;100689.69;5032415;28;20388;-74
2023/07/25 01:33:48;;;;;;;0.15;0.15;;;;;;;19.80;64.18;100682.03;5033375;28;20021;-74
2023/07/25 01:36:13;;;;;;;0.20;0.20;;;;;;;19.89;63.42;100683.03;5032456;28;20029;-74
2023/07/25 01:38:39;;;;;;;0.17;0.17;;;;;;;19.87;63.44;100685.22;5032334;28;20077;-75
2023/07/25 01:41:04;;;;;;;0.10;0.10;;;;;;;19.90;63.17;100695.56;5025520;28;20040;-75
2023/07/25 01:43:29;;;;;;;0.20;0.20;;;;;;;19.82;63.86;100685.28;5013893;28;20088;-74
2023/07/25 01:45:55;;;;;;;0.20;0.20;;;;;;;19.66;64.40;100693.91;5046311;28;20396;-74
2023/07/25 01:48:20;;;;;;;0.20;0.20;;;;;;;19.66;63.84;100693.91;5034864;28;20049;-74
2023/07/25 01:50:45;;;;;;;0.20;0.20;;;;;;;19.48;64.51;100695.47;5032048;28;20029;-75
2023/07/25 01:53:11;;;;;;;0.20;0.20;;;;;;;19.52;64.32;100695.72;5030445;28;20497;-77
2023/07/25 01:55:37;;;;;;;0.10;0.10;;;;;;;19.40;64.17;100696.06;5032006;28;20046;-75
2023/07/25 01:58:02;;;;;;;0.20;0.20;;;;;;;19.33;64.79;100701.06;5032683;28;20075;-75
2023/07/25 02:00:27;;;;;;;0.10;0.10;;;;;;;19.49;64.59;100699.00;5032103;28;20041;-75
2023/07/25 02:02:53;;;;;;;0.20;0.20;;;;;;;19.62;63.68;100698.31;5032230;28;20079;-76
2023/07/25 02:05:18;;;;;;;0.20;0.20;;;;;;;19.48;64.20;100692.72;5022611;28;20044;-74
2023/07/25 02:07:43;;;;;;;0.20;0.20;;;;;;;19.61;63.74;100699.44;5031614;28;20455;-74
2023/07/25 02:10:09;;;;;;;0.20;0.20;;;;;;;19.57;63.81;100701.09;5014552;28;20041;-75
2023/07/25 02:12:34;;;;;;;0.10;0.10;;;;;;;19.41;64.53;100688.72;5031986;28;20125;-73
2023/07/25 02:14:59;;;;;;;0.20;0.20;;;;;;;19.29;65.03;100684.44;5032050;28;20029;-75
2023/07/25 02:17:25;;;;;;;0.20;0.20;;;;;;;19.02;66.42;100675.97;5032694;28;20037;-75
2023/07/25 02:19:50;;;;;;;0.20;0.20;;;;;;;19.18;64.98;100676.66;5032150;28;20040;-74
2023/07/25 02:22:16;;;;;;;0.20;0.20;;;;;;;19.63;63.09;100672.69;5031879;28;20088;-75
2023/07/25 02:24:41;;;;;;;0.20;0.20;;;;;;;19.57;62.85;100671.94;5031395;28;20107;-75
2023/07/25 02:27:06;;;;;;;0.20;0.20;;;;;;;19.47;63.76;100673.94;5031999;28;20042;-75
2023/07/25 02:29:32;;;;;;;0.25;0.25;;;;;;;19.49;63.47;100678.03;5031853;28;20030;-74
2023/07/25 02:31:57;;;;;;;0.20;0.20;;;;;;;19.35;64.38;100668.06;5031861;28;20099;-75
2023/07/25 02:34:22;;;;;;;0.17;0.17;;;;;;;18.67;66.79;100670.75;5031559;28;20505;-73
2023/07/25 02:36:48;;;;;;;0.17;0.17;;;;;;;19.03;65.83;100663.97;5032181;28;20067;-75
2023/07/25 02:39:14;;;;;;;0.13;0.13;;;;;;;19.37;64.47;100669.41;5031886;28;20041;-76
2023/07/25 02:41:39;;;;;;;0.20;0.20;;;;;;;19.34;64.70;100678.16;5015606;28;20513;-75
2023/07/25 02:44:04;;;;;;;0.20;0.20;;;;;;;19.32;64.71;100665.91;5011269;28;20042;-75
2023/07/25 02:46:30;;;;;;;0.10;0.10;;;;;;;19.59;63.89;100677.09;5013598;28;20071;-75
2023/07/25 02:48:55;;;;;;;0.17;0.17;;;;;;;19.54;63.95;100668.97;5031749;28;20029;-75
2023/07/25 02:51:21;;;;;;;0.10;0.10;;;;;;;19.84;62.97;100671.38;5031050;28;20382;-74
2023/07/25 02:53:46;;;;;;;0.20;0.20;;;;;;;19.98;62.65;100672.28;5013038;28;20505;-74
2023/07/25 02:56:12;;;;;;;0.20;0.20;;;;;;;19.41;64.45;100684.09;5031502;28;20026;-74
2023/07/25 02:58:37;;;;;;;0.20;0.20;;;;;;;19.23;64.97;100677.41;5031409;28;20041;-74
2023/07/25 03:01:02;;;;;;;0.10;0.10;;;;;;;19.24;65.33;100678.22;5031916;28;20418;-75
2023/07/25 03:03:28;;;;;;;0.20;0.20;;;;;;;19.57;64.08;100671.13;5025005;28;20033;-74
2023/07/25 03:05:54;;;;;;;0.20;0.20;;;;;;;19.60;63.83;100675.97;5031667;28;20038;-75
2023/07/25 03:08:19;;;;;;;0.20;0.20;;;;;;;19.90;63.38;100659.28;5030837;28;20040;-76
2023/07/25 03:10:44;;;;;;;0.10;0.10;;;;;;;19.70;63.97;100664.97;5030664;28;20509;-75
2023/07/25 03:13:10;;;;;;;0.17;0.17;;;;;;;19.41;64.69;100669.66;5031208;28;20034;-74
2023/07/25 03:15:35;;;;;;;0.20;0.20;;;;;;;19.75;64.40;100662.22;5030786;28;20038;-74
2023/07/25 03:18:00;;;;;;;0.20;0.20;;;;;;;19.97;63.43;100670.66;5030560;28;20497;-75
2023/07/25 03:20:26;;;;;;;0.10;0.10;;;;;;;19.95;63.59;100670.94;5030362;28;20029;-76
2023/07/25 03:22:51;;;;;;;0.10;0.10;;;;;;;19.97;63.07;100681.56;5030069;28;20068;-74
2023/07/25 03:25:17;;;;;;;0.10;0.10;;;;;;;19.86;63.21;100683.63;5030933;28;20044;-75
2023/07/25 03:27:42;;;;;;;0.20;0.20;;;;;;;19.61;64.76;100683.06;5022138;28;20060;-75
2023/07/25 03:30:08;;;;;;;0.20;0.20;;;;;;;19.68;64.35;100681.63;5030273;28;20131;-74
2023/07/25 03:32:33;;;;;;;0.20;0.20;;;;;;;19.72;64.78;100679.94;5029936;28;20037;-74
2023/07/25 03:34:58;;;;;;;0.10;0.10;;;;;;;19.50;65.26;100674.19;5029826;28;20643;-74
2023/07/25 03:37:24;;;;;;;0.20;0.20;;;;;;;19.73;64.38;100687.03;5029896;28;20381;-75
2023/07/25 03:39:49;;;;;;;0.10;0.10;;;;;;;20.14;64.21;100681.91;5029787;28;20022;-74
2023/07/25 03:42:14;;;;;;;0.20;0.20;;;;;;;19.98;63.58;100683.19;5010331;28;20026;-74
2023/07/25 03:44:40;;;;;;;0.10;0.10;;;;;;;20.17;63.11;100676.69;5013764;28;20029;-74
2023/07/25 03:47:05;;;;;;;0.10;0.10;;;;;;;20.10;63.19;100676.25;5030159;28;20061;-75
2023/07/25 03:49:31;;;;;;;0.20;0.20;;;;;;;20.34;62.62;100686.34;5029210;28;20497;-74
2023/07/25 03:51:56;;;;;;;0.13;0.13;;;;;;;20.40;62.50;100690.63;5029939;28;20378;-74
2023/07/25 03:54:23;;;;;;;0.20;0.20;;;;;;;20.17;62.71;100690.31;5029642;28;20045;-75
2023/07/25 03:56:50;;;;;;;0.20;0.20;;;;;;;20.28;62.94;100692.97;5030257;28;20056;-75
2023/07/25 03:59:16;;;;;;;0.17;0.17;;;;;;;20.31;63.12;100693.19;5026433;28;20037;-75
2023/07/25 04:01:41;;;;;;;0.10;0.10;;;;;;;20.52;62.66;100697.25;5028225;28;20049;-74
2023/07/25 04:04:07;;;;;;;0.10;0.10;;;;;;;20.25;63.90;100688.06;5029952;28;20470;-75
2023/07/25 04:06:32;;;;;;;0.10;0.10;;;;;;;20.41;63.21;100697.69;5029499;28;20044;-74
2023/07/25 04:08:57;;;;;;;0.20;0.20;;;;;;;20.56;62.75;100700.22;4993168;28;20038;-74
2023/07/25 04:11:23;;;;;;;0.10;0.10;;;;;;;20.28;63.85;100695.69;5012873;28;20036;-74
2023/07/25 04:13:48;;;;;;;0.10;0.10;;;;;;;20.48;62.81;100709.06;5029624;28;20038;-74
2023/07/25 04:16:13;;;;;;;0.10;0.10;;;;;;;20.05;64.91;100705.47;5030860;28;20033;-74
2023/07/25 04:18:39;;;;;;;0.20;0.20;;;;;;;20.51;63.26;100705.75;5028783;28;20583;-75
2023/07/25 04:21:04;;;;;;;0.20;0.20;;;;;;;20.63;62.98;100690.56;4997319;28;20096;-74
2023/07/25 04:23:29;;;;;;;0.10;0.10;;;;;;;20.68;62.76;100693.22;5009811;28;20046;-75
2023/07/25 04:25:55;;;;;;;0.10;0.10;;;;;;;20.42;63.67;100696.59;5009960;28;20029;-75
2023/07/25 04:28:20;;;;;;;0.10;0.10;;;;;;;20.58;63.88;100687.09;5010175;28;20023;-74
2023/07/25 04:30:45;;;;;;;0.10;0.10;;;;;;;20.72;62.71;100691.50;5010692;28;20462;-76
2023/07/25 04:33:11;;;;;;;0.17;0.17;;;;;;;20.77;63.27;100687.91;5009956;28;20099;-74
2023/07/25 04:35:36;;;;;;;0.10;0.10;;;;;;;20.93;62.82;100681.88;5010093;28;20571;-74
2023/07/25 04:38:02;;;;;;;0.10;0.10;;;;;;;21.20;62.28;100686.69;5010206;28;20154;-74
2023/07/25 04:40:28;;;;;;;0.10;0.10;;;;;;;21.06;61.83;100687.75;5010052;28;20062;-73
2023/07/25 04:42:54;;;;;;;0.10;0.10;;;;;;;21.17;61.55;100681.81;5023774;28;20037;-75
2023/07/25 04:45:19;;;;;;;0.10;0.10;;;;;;;21.13;62.13;100682.72;5029883;28;20037;-76
2023/07/25 04:47:45;;;;;;;0.10;0.10;;;;;;;21.08;62.11;100680.06;5029664;28;20309;-75
2023/07/25 04:50:10;;;;;;;0.10;0.10;;;;;;;20.70;63.22;100682.81;5029705;28;20029;-76
2023/07/25 04:52:35;;;;;;;0.10;0.10;;;;;;;20.37;64.77;100683.81;5029714;28;20040;-74
2023/07/25 04:55:01;;;;;;;0.10;0.10;;;;;;;20.98;62.70;100673.63;5029895;28;20037;-75
2023/07/25 04:57:27;;;;;;;0.10;0.10;;;;;;;20.93;62.57;100687.34;5029264;28;20524;-74
2023/07/25 04:59:53;;;;;;;0.10;0.10;;;;;;;21.36;61.74;100687.25;5030882;28;20053;-75
2023/07/25 05:02:22;;;;;;;0.10;0.10;;;;;;;21.10;62.16;100691.50;5033445;28;20030;-75
2023/07/25 05:04:47;;;;;;;0.10;0.10;;;;;;;21.05;63.03;100695.13;5033769;28;20033;-74
2023/07/25 05:07:14;;;;;;;0.10;0.10;;;;;;;21.38;61.95;100699.50;5034907;28;20029;-75
2023/07/25 05:09:39;;;;;;;0.10;0.10;;;;;;;21.19;62.76;100711.59;5033543;28;20041;-74
2023/07/25 05:12:06;;;;;;;0.10;0.10;;;;;;;21.30;62.47;100710.31;5033780;28;20040;-76
2023/07/25 05:14:31;;;;;;;0.10;0.10;;;;;;;20.83;63.39;100706.63;5033101;28;20669;-74
2023/07/25 05:16:57;;;;;;;0.10;0.10;;;;;;;21.10;63.71;100707.91;5027597;28;20041;-76
2023/07/25 05:19:23;;;;;;;0.10;0.10;;;;;;;20.94;64.01;100707.28;5014003;28;20026;-73
2023/07/25 05:21:48;;;;;;;0.10;0.10;;;;;;;21.33;62.23;100715.97;5033605;28;20040;-76
2023/07/25 05:24:14;;;;;;;0.10;0.10;;;;;;;21.57;61.63;100713.91;5033251;28;20041;-74
2023/07/25 05:26:40;;;;;;;0.10;0.10;;;;;;;21.71;61.13;100713.94;5033400;28;20045;-74
2023/07/25 05:29:06;;;;;;;0.10;0.10;;;;;;;21.76;61.32;100717.38;5033098;28;20576;-74
2023/07/25 05:31:31;;;;;;;0.10;0.10;;;;;;;21.94;60.41;100714.91;5032864;28;20037;-75
2023/07/25 05:33:56;;;;;;;0.10;0.10;;;;;;;21.23;62.74;100718.88;5033294;28;20025;-75
2023/07/25 05:36:22;;;;;;;0.10;0.10;;;;;;;21.67;61.42;100721.13;5032480;28;20045;-74
2023/07/25 05:38:47;;;;;;;0.10;0.10;;;;;;;21.48;62.04;100721.16;5032623;28;20037;-75
2023/07/25 05:41:12;;;;;;;0.10;0.10;;;;;;;21.50;61.85;100718.16;5006110;28;20092;-75
2023/07/25 05:43:38;;;;;;;0.17;0.17;;;;;;;21.30;62.27;100723.97;5030874;28;20040;-75
2023/07/25 05:46:03;;;;;;;0.10;0.10;;;;;;;21.56;62.11;100722.44;5052925;28;20108;-74
2023/07/25 05:48:29;;;;;;;0.20;0.20;;;;;;;21.21;63.28;100731.25;5052052;28;20044;-74
2023/07/25 05:50:54;;;;;;;0.20;0.20;;;;;;;21.32;63.60;100727.22;5052247;28;20345;-76
2023/07/25 05:53:19;;;;;;;0.10;0.10;;;;;;;21.67;62.01;100721.94;5035315;28;20041;-74
2023/07/25 05:55:46;;;;;;;0.10;0.10;;;;;;;21.74;61.73;100725.09;5031649;28;20060;-73
2023/07/25 05:58:16;;;;;;;0.10;0.10;;;;;;;21.88;61.77;100730.59;5032244;28;20076;-75
2023/07/25 06:00:46;;;;;;;;;;;;;;;21.91;61.49;100730.00;5032304;28;20128;-75
2023/07/25 06:03:13;;;;;;;0.10;0.10;;;;;;;20.92;65.34;100728.63;5031746;28;19970;-75
2023/07/25 06:05:39;;;;;;;0.10;0.10;;;;;;;21.11;63.54;100734.91;5014261;28;20087;-75
2023/07/25 06:08:04;;;;;;;0.20;0.20;;;;;;;21.05;64.44;100732.59;5031994;28;20037;-75
2023/07/25 06:10:30;;;;;;;0.10;0.10;;;;;;;20.89;65.34;100732.75;5014063;28;20045;-75
2023/07/25 06:12:55;;;;;;;0.10;0.10;;;;;;;21.57;62.13;100729.50;5031189;28;20509;-76
2023/07/25 06:15:21;;;;;;;0.10;0.10;;;;;;;21.57;63.52;100732.25;5028540;28;20061;-75
2023/07/25 06:17:46;;;;;;;0.10;0.10;;;;;;;22.03;61.57;100718.56;5031536;28;20041;-75
2023/07/25 06:20:12;;;;;;;0.10;0.10;;;;;;;21.34;62.91;100734.03;5031999;28;20037;-75
2023/07/25 06:22:38;;;;;;;0.10;0.10;;;;;;;21.20;63.58;100733.16;5031356;28;20041;-75
2023/07/25 06:25:05;;;;;;;0.10;0.10;;;;;;;21.27;64.67;100730.84;5032545;28;20048;-75
2023/07/25 06:27:31;;;;;;;0.10;0.10;;;;;;;21.58;62.91;100725.69;5032197;28;20103;-74
2023/07/25 06:29:56;;;;;;;0.10;0.10;;;;;;;21.79;62.38;100725.00;5031233;28;20505;-75
2023/07/25 06:32:22;;;;;;;0.10;0.10;;;;;;;21.92;61.63;100728.88;5013668;28;20032;-76
2023/07/25 06:34:48;;;;;;;0.10;0.10;;;;;;;21.76;62.75;100732.97;5031738;28;20116;-75
2023/07/25 06:37:13;;;;;;;0.20;0.20;;;;;;;22.03;61.50;100729.50;5032271;28;20095;-75
2023/07/25 06:39:39;;;;;;;0.10;0.10;;;;;;;21.47;63.61;100722.31;5032127;28;20048;-74
2023/07/25 06:42:04;;;;;;;0.15;0.15;;;;;;;21.79;62.52;100721.44;5027624;28;20033;-74
2023/07/25 06:44:29;;;;;;;0.10;0.10;;;;;;;21.86;61.61;100730.09;5042150;28;20052;-75
2023/07/25 06:46:55;;;;;;;0.10;0.10;;;;;;;21.67;62.65;100735.63;5052378;28;20033;-74
2023/07/25 06:49:20;;;;;;;0.10;0.10;;;;;;;22.10;61.51;100730.72;5037303;28;20095;-74
2023/07/25 06:51:46;;;;;;;0.10;0.10;;;;;;;22.20;60.92;100730.53;5032641;28;20079;-76
2023/07/25 06:54:11;;;;;;;0.10;0.10;;;;;;;22.46;60.14;100730.81;5031630;28;20040;-76
2023/07/25 06:56:36;;;;;;;0.20;0.20;;;;;;;22.79;59.03;100728.72;5032672;28;20042;-75
2023/07/25 06:59:03;;;;;;;0.10;0.10;;;;;;;22.01;59.86;100729.00;5032308;28;20033;-74
2023/07/25 07:01:29;;;;;;;0.10;0.10;;;;;;;21.77;62.53;100740.09;5031685;28;20025;-75
2023/07/25 07:03:55;;;;;;;0.10;0.10;;;;;;;22.67;59.40;100723.78;5033002;28;20500;-75
2023/07/25 07:06:20;;;;;;;0.10;0.10;;;;;;;22.08;59.44;100723.91;5031295;28;20044;-74
2023/07/25 07:08:45;;;;;;;0.10;0.10;;;;;;;22.51;56.12;100730.69;5031609;28;20141;-74
2023/07/25 07:11:11;;;;;;;0.08;0.08;;;;;;;21.91;54.18;100727.28;5032244;28;20038;-74
2023/07/25 07:13:36;;;;;;;0.10;0.10;;;;;;;22.28;52.97;100731.72;5032393;28;20513;-75
2023/07/25 07:16:02;;;;;;;0.10;0.10;;;;;;;21.53;54.88;100734.78;5031724;28;20037;-73
2023/07/25 07:18:28;;;;;;;0.10;0.10;;;;;;;21.25;58.89;100737.69;5031834;28;20033;-76
2023/07/25 07:20:53;;;;;;;0.10;0.10;;;;;;;21.89;60.79;100736.91;5030595;28;20437;-75
2023/07/25 07:23:18;;;;;;;0.10;0.10;;;;;;;21.50;62.08;100734.56;5029723;28;20052;-74
2023/07/25 07:25:44;;;;;;;0.10;0.10;;;;;;;21.14;62.34;100739.00;5029818;28;20034;-75
2023/07/25 07:28:10;;;;;;;0.10;0.10;;;;;;;20.36;65.74;100730.53;5030386;28;20084;-74
2023/07/25 07:30:36;;;;;;;0.10;0.10;;;;;;;21.81;60.90;100728.28;5029809;28;20494;-75
2023/07/25 07:33:01;;;;;;;0.10;0.10;;;;;;;21.76;59.50;100736.53;5030021;28;20041;-74
2023/07/25 07:35:26;;;;;;;0.20;0.20;;;;;;;21.52;59.78;100735.88;5029984;28;20603;-75
2023/07/25 07:37:52;;;;;;;0.10;0.10;;;;;;;21.67;57.93;100732.88;5029744;28;20037;-74
2023/07/25 07:40:17;;;;;;;0.10;0.10;;;;;;;23.12;55.60;100730.94;5025450;28;20405;-74
2023/07/25 07:42:43;;;;;;;0.10;0.10;;;;;;;21.91;56.53;100731.94;5011364;28;20041;-75
2023/07/25 07:45:08;;;;;;;0.10;0.10;;;;;;;22.34;57.37;100730.50;5025579;28;20390;-75
2023/07/25 07:47:34;;;;;;;0.10;0.10;;;;;;;22.58;57.38;100731.91;5029657;28;20037;-75
2023/07/25 07:49:59;;;;;;;0.03;0.03;;;;;;;22.37;56.35;100733.44;5029731;28;20033;-74
2023/07/25 07:52:25;;;;;;;0.10;0.10;;;;;;;22.55;55.85;100731.69;5011577;28;20468;-75
2023/07/25 07:54:51;;;;;;;0.10;0.10;;;;;;;22.55;54.76;100731.69;5029878;28;20056;-74
2023/07/25 07:57:16;;;;;;;0.05;0.05;;;;;;;22.69;52.32;100724.28;5029528;28;20037;-75
2023/07/25 07:59:43;;;;;;;0.10;0.10;;;;;;;23.41;49.93;100723.13;5011610;28;20050;-75
2023/07/25 08:02:09;;;;;;;0.10;0.10;;;;;;;22.75;53.63;100725.81;5029603;28;20025;-74
2023/07/25 08:04:35;;;;;;;0.00;0.00;;;;;;;23.19;54.06;100723.09;5029279;28;20043;-74
2023/07/25 08:07:00;;;;;;;0.10;0.10;;;;;;;22.39;55.86;100730.41;5011821;28;20175;-76
2023/07/25 08:09:26;;;;;;;0.10;0.10;;;;;;;22.82;51.61;100726.19;5029450;28;20448;-75
2023/07/25 08:11:51;;;;;;;0.00;0.00;;;;;;;22.24;52.24;100719.75;5011414;28;20095;-76
2023/07/25 08:14:16;;;;;;;0.00;0.00;;;;;;;22.67;50.85;100730.09;5010939;28;20034;-77
2023/07/25 08:16:42;;;;;;;0.10;0.10;;;;;;;21.88;51.39;100748.97;5029475;28;20040;-73
2023/07/25 08:19:07;;;;;;;0.10;0.10;;;;;;;21.86;50.28;100745.72;5029602;28;20017;-73
2023/07/25 08:21:32;;;;;;;0.10;0.10;;;;;;;21.24;51.40;100756.06;5029397;28;20505;-73
2023/07/25 08:23:58;;;;;;;0.00;0.00;;;;;;;20.86;51.73;100747.03;5029002;28;20075;-75
2023/07/25 08:26:23;;;;;;;0.10;0.10;;;;;;;21.82;49.56;100753.69;5029554;28;20104;-74
2023/07/25 08:28:49;;;;;;;0.00;0.00;;;;;;;21.73;49.03;100760.97;5028985;28;20076;-75
2023/07/25 08:31:14;;;;;;;0.10;0.10;;;;;;;22.30;46.86;100752.22;5029562;28;20021;-74
2023/07/25 08:33:42;;;;;;;0.10;0.10;;;;;;;22.56;46.62;100760.72;5029156;28;20083;-73
2023/07/25 08:36:08;;;;;;;0.10;0.10;;;;;;;22.68;46.97;100761.84;5031096;28;20029;-73
2023/07/25 08:38:33;;;;;;;0.10;0.10;;;;;;;22.70;45.43;100751.38;5031951;28;20036;-75
2023/07/25 08:41:05;;;;;;;0.10;0.10;;;;;;;22.83;45.43;100773.56;5032739;28;20079;-74
2023/07/25 08:43:35;;;;;;;0.10;0.10;;;;;;;22.93;46.47;100776.09;5033143;28;20021;-76
2023/07/25 08:46:06;;;;;;;0.00;0.00;;;;;;;23.51;44.99;100771.44;5033697;28;20037;-74
2023/07/25 08:48:34;;;;;;;0.10;0.10;;;;;;;22.70;45.57;100767.03;5033007;28;20060;-75
2023/07/25 08:51:01;;;;;;;0.10;0.10;;;;;;;23.18;45.04;100781.00;5033276;28;20025;-74
2023/07/25 08:53:28;;;;;;;0.10;0.10;;;;;;;21.92;46.53;100780.88;5031547;28;20121;-75
2023/07/25 08:55:56;;;;;;;0.10;0.10;;;;;;;22.78;45.63;100771.75;5033000;28;20037;-75
2023/07/25 08:58:23;;;;;;;0.10;0.10;;;;;;;22.18;44.25;100783.94;4996024;28;20029;-76
2023/07/25 09:00:49;;;;;;;0.10;0.10;;;;;;;22.46;43.48;100780.94;5013293;28;20038;-74
2023/07/25 09:03:15;;;;;;;0.00;0.00;;;;;;;22.31;43.83;100788.63;5012944;28;20033;-73
2023/07/25 09:05:41;;;;;;;0.10;0.10;;;;;;;22.23;43.43;100783.88;5013081;28;20034;-75
2023/07/25 09:08:06;;;;;;;0.05;0.05;;;;;;;22.64;42.59;100780.00;5013145;28;20071;-75
2023/07/25 09:10:32;;;;;;;0.10;0.10;;;;;;;24.18;40.86;100778.44;5013097;28;20038;-74
2023/07/25 09:12:57;;;;;;;0.10;0.10;;;;;;;23.53;43.32;100772.75;5013493;28;20028;-75
2023/07/25 09:15:23;;;;;;;0.00;0.00;;;;;;;23.91;43.03;100780.56;5016591;28;20029;-75
2023/07/25 09:17:53;;;;;;;0.10;0.10;;;;;;;23.23;43.53;100789.91;5032696;28;20409;-74
2023/07/25 09:20:19;;;;;;;0.10;0.10;;;;;;;22.91;43.46;100786.56;5032625;28;20033;-74
2023/07/25 09:22:47;;;;;;;0.00;0.00;;;;;;;23.38;42.51;100792.34;5032170;28;20052;-75
2023/07/25 09:25:14;;;;;;;0.00;0.00;;;;;;;23.15;41.58;100796.16;5033202;28;20124;-74
2023/07/25 09:27:39;;;;;;;0.10;0.10;;;;;;;24.16;39.80;100785.38;5032704;28;20037;-74
2023/07/25 09:30:12;;;;;;;0.00;0.00;;;;;;;24.79;39.18;100793.19;5032941;28;20130;-74
2023/07/25 09:32:38;;;;;;;0.00;0.00;;;;;;;24.18;40.46;100797.69;5031622;28;20045;-75
2023/07/25 09:35:06;;;;;;;0.05;0.05;;;;;;;23.15;42.22;100800.81;5033200;28;20052;-76
2023/07/25 09:37:32;;;;;;;0.00;0.00;;;;;;;22.92;42.14;100796.41;5032412;28;20018;-76
2023/07/25 09:39:58;;;;;;;0.00;0.00;;;;;;;23.14;43.47;100804.66;5032837;28;20048;-73
2023/07/25 09:42:24;;;;;;;0.10;0.10;;;;;;;23.23;42.60;100806.34;5031910;28;20394;-73
2023/07/25 09:44:51;;;;;;;0.03;0.03;;;;;;;23.70;41.00;100804.16;5015802;28;20121;-73
2023/07/25 09:47:27;;;;;;;0.00;0.00;;;;;;;24.47;40.30;100799.88;5011086;28;20045;-74
2023/07/25 09:49:54;;;;;;;0.10;0.10;;;;;;;24.05;39.98;100804.09;5012965;28;20489;-75
2023/07/25 09:52:24;;;;;;;0.10;0.10;;;;;;;23.81;41.68;100805.50;5013205;28;20026;-76
2023/07/25 09:54:50;;;;;;;0.00;0.00;;;;;;;23.03;42.74;100806.03;5012296;28;20052;-74
2023/07/25 09:57:16;;;;;;;0.00;0.00;;;;;;;23.35;43.50;100814.88;5023129;28;20203;-73
2023/07/25 09:59:42;;;;;;;0.00;0.00;;;;;;;23.93;42.07;100798.34;5031893;28;20086;-75
2023/07/25 10:02:08;;;;;;;0.00;0.00;;;;;;;23.20;43.97;100808.91;5032179;28;20029;-74
2023/07/25 10:04:38;;;;;;;0.00;0.00;;;;;;;22.92;42.78;100808.16;5032073;28;20030;-76
2023/07/25 10:07:05;;;;;;;0.10;0.10;;;;;;;23.66;41.49;100806.72;5032227;28;20052;-74
2023/07/25 10:09:31;;;;;;;0.00;0.00;;;;;;;23.02;42.74;100804.38;5030501;28;20132;-74
2023/07/25 10:11:56;;;;;;;0.10;0.10;;;;;;;22.94;43.29;100818.84;5031635;28;20378;-75
2023/07/25 10:14:22;;;;;;;0.10;0.10;;;;;;;22.53;44.65;100822.41;5031679;28;20047;-74
2023/07/25 10:16:48;;;;;;;0.00;0.00;;;;;;;22.85;44.23;100815.19;5031997;28;20037;-76
2023/07/25 10:19:13;;;;;;;0.00;0.00;;;;;;;23.99;40.73;100815.47;5032359;28;20112;-73
2023/07/25 10:21:50;;;;;;;0.10;0.10;;;;;;;24.02;40.03;100815.69;5031841;28;20037;-73
2023/07/25 10:24:16;;;;;;;0.10;0.10;;;;;;;24.28;39.14;100807.56;5031559;28;20083;-75
2023/07/25 10:26:53;;;;;;;0.00;0.00;;;;;;;23.94;38.28;100815.63;5031384;28;20056;-73
2023/07/25 10:29:38;;;;;;;0.00;0.00;;;;;;;23.57;38.17;100821.53;5024683;28;20030;-73
2023/07/25 10:32:05;;;;;;;0.10;0.10;;;;;;;23.31;39.68;100807.59;5031649;28;20041;-75
2023/07/25 10:34:44;;;;;;;0.03;0.03;;;;;;;23.73;40.74;100811.75;5030944;28;20083;-72
2023/07/25 10:37:27;;;;;;;0.00;0.00;;;;;;;23.37;42.11;100814.59;5031577;28;20078;-73
2023/07/25 10:40:02;;;;;;;0.00;0.00;;;;;;;23.95;40.34;100815.31;5031801;28;20439;-74
2023/07/25 10:42:48;;;;;;;0.05;0.05;;;;;;;24.01;40.04;100811.31;5031046;28;20042;-72
2023/07/25 10:45:28;;;;;;;0.00;0.00;;;;;;;23.87;38.93;100812.50;5030867;28;20479;-73
2023/07/25 10:47:59;;;;;;;;;;;;;;;23.78;40.22;100812.47;5031657;28;20049;-74
2023/07/25 10:50:26;;;;;;;0.00;0.00;;;;;;;22.66;43.42;100826.28;5031242;28;20423;-74
2023/07/25 10:52:52;;;;;;;0.10;0.10;;;;;;;22.45;44.60;100828.59;5031222;28;20117;-75
2023/07/25 10:55:17;;;;;;;0.00;0.00;;;;;;;23.03;43.28;100826.03;5032385;28;20035;-73
2023/07/25 10:58:07;;;;;;;0.00;0.00;;;;;;;23.48;42.16;100815.94;5028070;28;20456;-75
2023/07/25 11:00:36;;;;;;;0.00;0.00;;;;;;;23.40;42.34;100814.78;4970052;28;20030;-73
2023/07/25 11:03:31;;;;;;;0.10;0.10;;;;;;;24.17;40.50;100803.50;4969283;28;20043;-73
2023/07/25 11:06:22;;;;;;;0.10;0.10;;;;;;;24.43;39.90;100815.41;4969543;28;20427;-74
2023/07/25 11:08:48;;;;;;;0.03;0.03;;;;;;;24.20;39.29;100811.09;4893472;29;20040;-74
2023/07/25 11:11:13;;;;;;;0.10;0.10;;;;;;;25.02;37.08;100803.75;4893389;29;20475;-74
2023/07/25 11:13:40;;;;;;;0.00;0.00;;;;;;;24.20;38.94;100805.59;4877357;29;20040;-78
2023/07/25 11:16:08;;;;;;;0.00;0.00;;;;;;;23.93;39.05;100812.06;4893367;29;20516;-69
2023/07/25 11:18:37;;;;;;;0.10;0.10;;;;;;;23.15;40.12;100817.25;4874926;29;20044;-68
2023/07/25 11:21:05;;;;;;;0.00;0.00;;;;;;;24.21;39.81;100812.72;4881101;29;20522;-68
2023/07/25 11:23:31;;;;;;;0.00;0.00;;;;;;;23.59;42.25;100802.81;4891180;29;20604;-67
2023/07/25 11:25:58;;;;;;;0.00;0.00;;;;;;;23.85;40.59;100812.81;4892877;29;20127;-67
2023/07/25 11:28:25;;;;;;;0.05;0.05;;;;;;;24.81;39.71;100804.69;4887223;29;20093;-63
2023/07/25 11:30:53;;;;;;;0.00;0.00;;;;;;;24.71;38.06;100804.94;4858512;29;20068;-68
2023/07/25 11:33:19;;;;;;;0.00;0.00;;;;;;;23.80;39.92;100815.72;4885513;29;20562;-67
2023/07/25 11:35:50;;;;;;;0.00;0.00;;;;;;;23.88;42.00;100803.16;4889274;29;20437;-67
2023/07/25 11:38:16;;;;;;;0.00;0.00;;;;;;;23.89;41.60;100811.06;4939182;28;20476;-68
2023/07/25 11:40:41;;;;;;;0.00;0.00;;;;;;;24.50;39.80;100815.75;4952515;28;20069;-68
2023/07/25 11:43:11;;;;;;;0.00;0.00;;;;;;;25.44;37.62;100806.84;4955600;28;20336;-67
2023/07/25 11:45:36;;;;;;;0.00;0.00;;;;;;;25.06;38.27;100803.94;4996142;28;20241;-66